sensor_id;sensor_type;location;lat;lon;timestamp;pressure;altitude;pressure_sealevel;temperature
65180;BMP280;51849;47.476;8.084;2022-11-20T00:01:20;96119.06;;;6.03
65180;BMP280;51849;47.476;8.084;2022-11-20T00:03:46;96118.34;;;6.03
65180;BMP280;51849;47.476;8.084;2022-11-20T00:06:15;96119.16;;;5.94
65180;BMP280;51849;47.476;8.084;2022-11-20T00:08:41;96118.97;;;5.98
65180;BMP280;51849;47.476;8.084;2022-11-20T00:11:12;96116.13;;;5.96
65180;BMP280;51849;47.476;8.084;2022-11-20T00:13:38;96112.81;;;5.95
65180;BMP280;51849;47.476;8.084;2022-11-20T00:16:10;96113.53;;;5.96
65180;BMP280;51849;47.476;8.084;2022-11-20T00:18:38;96121.19;;;5.90
65180;BMP280;51849;47.476;8.084;2022-11-20T00:21:06;96120.56;;;5.95
65180;BMP280;51849;47.476;8.084;2022-11-20T00:23:33;96117.81;;;5.99
65180;BMP280;51849;47.476;8.084;2022-11-20T00:26:07;96124.25;;;6.03
65180;BMP280;51849;47.476;8.084;2022-11-20T00:28:33;96125.94;;;6.06
65180;BMP280;51849;47.476;8.084;2022-11-20T00:31:07;96122.94;;;6.08
65180;BMP280;51849;47.476;8.084;2022-11-20T00:33:36;96127.66;;;6.09
65180;BMP280;51849;47.476;8.084;2022-11-20T00:36:24;96122.75;;;6.11
65180;BMP280;51849;47.476;8.084;2022-11-20T00:38:57;96126.53;;;6.10
65180;BMP280;51849;47.476;8.084;2022-11-20T00:41:27;96128.75;;;6.17
65180;BMP280;51849;47.476;8.084;2022-11-20T00:43:54;96124.63;;;6.11
65180;BMP280;51849;47.476;8.084;2022-11-20T00:46:22;96131.13;;;6.06
65180;BMP280;51849;47.476;8.084;2022-11-20T00:48:48;96126.13;;;6.03
65180;BMP280;51849;47.476;8.084;2022-11-20T00:51:16;96128.25;;;6.04
65180;BMP280;51849;47.476;8.084;2022-11-20T00:53:42;96123.06;;;5.90
65180;BMP280;51849;47.476;8.084;2022-11-20T00:56:10;96126.50;;;5.87
65180;BMP280;51849;47.476;8.084;2022-11-20T00:58:38;96126.19;;;5.94
65180;BMP280;51849;47.476;8.084;2022-11-20T01:01:14;96130.38;;;5.91
65180;BMP280;51849;47.476;8.084;2022-11-20T01:03:46;96131.44;;;5.61
65180;BMP280;51849;47.476;8.084;2022-11-20T01:06:19;96143.13;;;5.71
65180;BMP280;51849;47.476;8.084;2022-11-20T01:08:46;96138.31;;;5.64
65180;BMP280;51849;47.476;8.084;2022-11-20T01:11:16;96136.31;;;5.59
65180;BMP280;51849;47.476;8.084;2022-11-20T01:13:43;96139.41;;;5.48
65180;BMP280;51849;47.476;8.084;2022-11-20T01:16:23;96141.13;;;5.42
65180;BMP280;51849;47.476;8.084;2022-11-20T01:18:54;96138.47;;;5.37
65180;BMP280;51849;47.476;8.084;2022-11-20T01:21:26;96139.31;;;5.34
65180;BMP280;51849;47.476;8.084;2022-11-20T01:23:53;96147.66;;;5.29
65180;BMP280;51849;47.476;8.084;2022-11-20T01:26:26;96143.69;;;5.19
65180;BMP280;51849;47.476;8.084;2022-11-20T01:28:56;96146.00;;;5.17
65180;BMP280;51849;47.476;8.084;2022-11-20T01:31:24;96145.19;;;4.93
65180;BMP280;51849;47.476;8.084;2022-11-20T01:33:53;96149.50;;;4.86
65180;BMP280;51849;47.476;8.084;2022-11-20T01:36:24;96146.63;;;4.84
65180;BMP280;51849;47.476;8.084;2022-11-20T01:38:53;96154.41;;;4.84
65180;BMP280;51849;47.476;8.084;2022-11-20T01:41:23;96151.69;;;4.88
65180;BMP280;51849;47.476;8.084;2022-11-20T01:44:11;96149.94;;;4.76
65180;BMP280;51849;47.476;8.084;2022-11-20T01:46:38;96151.53;;;4.73
65180;BMP280;51849;47.476;8.084;2022-11-20T01:49:16;96157.25;;;4.77
65180;BMP280;51849;47.476;8.084;2022-11-20T01:51:57;96148.81;;;4.77
65180;BMP280;51849;47.476;8.084;2022-11-20T01:54:52;96152.53;;;4.85
65180;BMP280;51849;47.476;8.084;2022-11-20T01:57:24;96148.66;;;4.80
65180;BMP280;51849;47.476;8.084;2022-11-20T02:00:03;96144.78;;;4.76
65180;BMP280;51849;47.476;8.084;2022-11-20T02:02:32;96154.72;;;4.68
65180;BMP280;51849;47.476;8.084;2022-11-20T02:05:02;96151.84;;;4.66
65180;BMP280;51849;47.476;8.084;2022-11-20T02:07:32;96152.69;;;4.72
65180;BMP280;51849;47.476;8.084;2022-11-20T02:09:58;96149.38;;;4.72
65180;BMP280;51849;47.476;8.084;2022-11-20T02:12:25;96145.78;;;4.78
65180;BMP280;51849;47.476;8.084;2022-11-20T02:15:10;96152.69;;;4.72
65180;BMP280;51849;47.476;8.084;2022-11-20T02:17:35;96150.97;;;4.69
65180;BMP280;51849;47.476;8.084;2022-11-20T02:20:06;96150.97;;;4.69
65180;BMP280;51849;47.476;8.084;2022-11-20T02:22:42;96148.66;;;4.71
65180;BMP280;51849;47.476;8.084;2022-11-20T02:25:14;96150.53;;;4.80
65180;BMP280;51849;47.476;8.084;2022-11-20T02:27:40;96147.81;;;4.83
65180;BMP280;51849;47.476;8.084;2022-11-20T02:30:12;96149.22;;;4.84
65180;BMP280;51849;47.476;8.084;2022-11-20T02:32:42;96153.09;;;4.80
65180;BMP280;51849;47.476;8.084;2022-11-20T02:37:50;96156.22;;;5.02
65180;BMP280;51849;47.476;8.084;2022-11-20T02:40:19;96152.22;;;5.01
65180;BMP280;51849;47.476;8.084;2022-11-20T02:42:44;96158.63;;;5.06
65180;BMP280;51849;47.476;8.084;2022-11-20T02:45:11;96152.19;;;5.10
65180;BMP280;51849;47.476;8.084;2022-11-20T02:47:39;96149.72;;;5.16
65180;BMP280;51849;47.476;8.084;2022-11-20T02:50:05;96151.88;;;5.17
65180;BMP280;51849;47.476;8.084;2022-11-20T02:52:31;96148.28;;;5.15
65180;BMP280;51849;47.476;8.084;2022-11-20T02:54:57;96147.13;;;5.07
65180;BMP280;51849;47.476;8.084;2022-11-20T02:57:28;96136.81;;;5.07
65180;BMP280;51849;47.476;8.084;2022-11-20T02:59:53;96151.44;;;5.10
65180;BMP280;51849;47.476;8.084;2022-11-20T03:02:19;96148.44;;;5.11
65180;BMP280;51849;47.476;8.084;2022-11-20T03:04:48;96151.44;;;5.10
65180;BMP280;51849;47.476;8.084;2022-11-20T03:07:17;96141.13;;;5.10
65180;BMP280;51849;47.476;8.084;2022-11-20T03:09:45;96141.44;;;5.03
65180;BMP280;51849;47.476;8.084;2022-11-20T03:12:12;96146.31;;;5.01
65180;BMP280;51849;47.476;8.084;2022-11-20T03:14:38;96151.22;;;4.99
65180;BMP280;51849;47.476;8.084;2022-11-20T03:17:07;96154.22;;;4.97
65180;BMP280;51849;47.476;8.084;2022-11-20T03:19:35;96148.91;;;5.01
65180;BMP280;51849;47.476;8.084;2022-11-20T03:22:03;96152.94;;;5.02
65180;BMP280;51849;47.476;8.084;2022-11-20T03:24:30;96158.81;;;5.02
65180;BMP280;51849;47.476;8.084;2022-11-20T03:26:56;96155.09;;;5.03
65180;BMP280;51849;47.476;8.084;2022-11-20T03:29:22;96159.97;;;5.01
65180;BMP280;51849;47.476;8.084;2022-11-20T03:31:47;96159.97;;;5.01
65180;BMP280;51849;47.476;8.084;2022-11-20T03:34:15;96157.50;;;4.98
65180;BMP280;51849;47.476;8.084;2022-11-20T03:36:42;96159.25;;;5.01
65180;BMP280;51849;47.476;8.084;2022-11-20T03:39:10;96158.69;;;4.97
65180;BMP280;51849;47.476;8.084;2022-11-20T03:41:38;96156.09;;;4.97
65180;BMP280;51849;47.476;8.084;2022-11-20T03:44:05;96162.84;;;5.03
65180;BMP280;51849;47.476;8.084;2022-11-20T03:46:34;96154.63;;;5.05
65180;BMP280;51849;47.476;8.084;2022-11-20T03:49:02;96156.50;;;5.04
65180;BMP280;51849;47.476;8.084;2022-11-20T03:51:32;96156.50;;;5.04
65180;BMP280;51849;47.476;8.084;2022-11-20T03:54:00;96150.34;;;5.02
65180;BMP280;51849;47.476;8.084;2022-11-20T03:56:29;96152.94;;;4.93
65180;BMP280;51849;47.476;8.084;2022-11-20T03:59:00;96165.56;;;5.00
65180;BMP280;51849;47.476;8.084;2022-11-20T04:01:28;96160.09;;;4.98
65180;BMP280;51849;47.476;8.084;2022-11-20T04:03:57;96157.38;;;4.92
65180;BMP280;51849;47.476;8.084;2022-11-20T04:06:25;96152.06;;;4.96
65180;BMP280;51849;47.476;8.084;2022-11-20T04:08:56;96154.94;;;4.98
65180;BMP280;51849;47.476;8.084;2022-11-20T04:11:29;96162.84;;;5.03
65180;BMP280;51849;47.476;8.084;2022-11-20T04:14:03;96161.97;;;4.97
65180;BMP280;51849;47.476;8.084;2022-11-20T04:16:31;96164.41;;;5.01
65180;BMP280;51849;47.476;8.084;2022-11-20T04:18:59;96156.81;;;4.97
65180;BMP280;51849;47.476;8.084;2022-11-20T04:21:26;96157.22;;;4.96
65180;BMP280;51849;47.476;8.084;2022-11-20T04:23:52;96162.41;;;4.86
65180;BMP280;51849;47.476;8.084;2022-11-20T04:26:19;96158.09;;;4.93
65180;BMP280;51849;47.476;8.084;2022-11-20T04:28:47;96156.13;;;4.88
65180;BMP280;51849;47.476;8.084;2022-11-20T04:31:15;96154.84;;;4.83
65180;BMP280;51849;47.476;8.084;2022-11-20T04:33:43;96150.66;;;4.85
65180;BMP280;51849;47.476;8.084;2022-11-20T04:36:14;96150.22;;;4.87
65180;BMP280;51849;47.476;8.084;2022-11-20T04:38:43;96151.25;;;4.80
65180;BMP280;51849;47.476;8.084;2022-11-20T04:41:22;96159.84;;;4.86
65180;BMP280;51849;47.476;8.084;2022-11-20T04:43:49;96158.81;;;4.93
65180;BMP280;51849;47.476;8.084;2022-11-20T04:46:18;96162.41;;;4.96
65180;BMP280;51849;47.476;8.084;2022-11-20T04:48:45;96163.84;;;4.97
65180;BMP280;51849;47.476;8.084;2022-11-20T04:51:11;96154.34;;;4.94
65180;BMP280;51849;47.476;8.084;2022-11-20T04:53:37;96160.97;;;4.95
65180;BMP280;51849;47.476;8.084;2022-11-20T04:56:07;96158.69;;;4.97
65180;BMP280;51849;47.476;8.084;2022-11-20T04:58:37;96167.56;;;4.96
65180;BMP280;51849;47.476;8.084;2022-11-20T05:01:07;96166.28;;;4.91
65180;BMP280;51849;47.476;8.084;2022-11-20T05:03:36;96173.75;;;4.98
65180;BMP280;51849;47.476;8.084;2022-11-20T05:06:04;96181.78;;;4.91
65180;BMP280;51849;47.476;8.084;2022-11-20T05:08:32;96173.59;;;4.93
65180;BMP280;51849;47.476;8.084;2022-11-20T05:11:02;96171.59;;;4.97
65180;BMP280;51849;47.476;8.084;2022-11-20T05:13:28;96168.28;;;4.96
65180;BMP280;51849;47.476;8.084;2022-11-20T05:15:54;96182.06;;;5.02
65180;BMP280;51849;47.476;8.084;2022-11-20T05:18:20;96176.72;;;5.06
65180;BMP280;51849;47.476;8.084;2022-11-20T05:20:45;96183.91;;;5.11
65180;BMP280;51849;47.476;8.084;2022-11-20T05:23:13;96188.16;;;5.32
65180;BMP280;51849;47.476;8.084;2022-11-20T05:25:39;96194.28;;;5.43
65180;BMP280;51849;47.476;8.084;2022-11-20T05:28:04;96184.38;;;5.42
65180;BMP280;51849;47.476;8.084;2022-11-20T05:30:30;96183.53;;;5.36
65180;BMP280;51849;47.476;8.084;2022-11-20T05:32:55;96193.88;;;5.36
65180;BMP280;51849;47.476;8.084;2022-11-20T05:35:21;96179.81;;;5.37
65180;BMP280;51849;47.476;8.084;2022-11-20T05:37:51;96175.53;;;5.25
65180;BMP280;51849;47.476;8.084;2022-11-20T05:40:17;96173.84;;;5.22
65180;BMP280;51849;47.476;8.084;2022-11-20T05:42:45;96162.91;;;5.18
65180;BMP280;51849;47.476;8.084;2022-11-20T05:45:11;96163.31;;;5.25
65180;BMP280;51849;47.476;8.084;2022-11-20T05:47:36;96164.78;;;5.26
65180;BMP280;51849;47.476;8.084;2022-11-20T05:50:05;96165.47;;;5.27
65180;BMP280;51849;47.476;8.084;2022-11-20T05:52:32;96169.78;;;5.30
65180;BMP280;51849;47.476;8.084;2022-11-20T05:54:58;96167.75;;;5.34
65180;BMP280;51849;47.476;8.084;2022-11-20T05:57:24;96173.47;;;5.38
65180;BMP280;51849;47.476;8.084;2022-11-20T05:59:54;96177.50;;;5.39
65180;BMP280;51849;47.476;8.084;2022-11-20T06:02:22;96182.50;;;5.42
65180;BMP280;51849;47.476;8.084;2022-11-20T06:04:48;96180.56;;;5.37
65180;BMP280;51849;47.476;8.084;2022-11-20T06:07:16;96177.50;;;5.39
65180;BMP280;51849;47.476;8.084;2022-11-20T06:09:44;96177.50;;;5.39
65180;BMP280;51849;47.476;8.084;2022-11-20T06:12:10;96175.91;;;5.41
65180;BMP280;51849;47.476;8.084;2022-11-20T06:14:35;96181.94;;;5.38
65180;BMP280;51849;47.476;8.084;2022-11-20T06:17:01;96180.06;;;5.39
65180;BMP280;51849;47.476;8.084;2022-11-20T06:19:26;96178.91;;;5.40
65180;BMP280;51849;47.476;8.084;2022-11-20T06:21:52;96175.03;;;5.44
65180;BMP280;51849;47.476;8.084;2022-11-20T06:24:20;96175.19;;;5.41
65180;BMP280;51849;47.476;8.084;2022-11-20T06:26:46;96178.34;;;5.45
65180;BMP280;51849;47.476;8.084;2022-11-20T06:29:11;96175.75;;;5.45
65180;BMP280;51849;47.476;8.084;2022-11-20T06:31:39;96174.88;;;5.48
65180;BMP280;51849;47.476;8.084;2022-11-20T06:34:05;96179.19;;;5.51
65180;BMP280;51849;47.476;8.084;2022-11-20T06:36:33;96178.88;;;5.49
65180;BMP280;51849;47.476;8.084;2022-11-20T06:39:00;96174.00;;;5.51
65180;BMP280;51849;47.476;8.084;2022-11-20T06:41:26;96183.22;;;5.52
65180;BMP280;51849;47.476;8.084;2022-11-20T06:43:51;96190.91;;;5.61
65180;BMP280;51849;47.476;8.084;2022-11-20T06:46:18;96190.91;;;5.61
65180;BMP280;51849;47.476;8.084;2022-11-20T06:48:44;96194.06;;;5.65
65180;BMP280;51849;47.476;8.084;2022-11-20T06:51:10;96183.88;;;5.61
65180;BMP280;51849;47.476;8.084;2022-11-20T06:53:38;96193.19;;;5.68
65180;BMP280;51849;47.476;8.084;2022-11-20T06:56:04;96201.31;;;5.75
65180;BMP280;51849;47.476;8.084;2022-11-20T06:58:32;96203.06;;;5.78
65180;BMP280;51849;47.476;8.084;2022-11-20T07:01:02;96205.91;;;5.81
65180;BMP280;51849;47.476;8.084;2022-11-20T07:03:30;96203.84;;;5.85
65180;BMP280;51849;47.476;8.084;2022-11-20T07:06:00;96204.88;;;5.87
65180;BMP280;51849;47.476;8.084;2022-11-20T07:08:25;96202.13;;;5.91
65180;BMP280;51849;47.476;8.084;2022-11-20T07:10:56;96207.13;;;5.94
65180;BMP280;51849;47.476;8.084;2022-11-20T07:13:22;96206.69;;;5.96
65180;BMP280;51849;47.476;8.084;2022-11-20T07:15:50;96210.81;;;6.02
65180;BMP280;51849;47.476;8.084;2022-11-20T07:18:18;96208.22;;;6.02
65180;BMP280;51849;47.476;8.084;2022-11-20T07:20:46;96211.94;;;6.10
65180;BMP280;51849;47.476;8.084;2022-11-20T07:23:12;96206.78;;;6.10
65180;BMP280;51849;47.476;8.084;2022-11-20T07:25:40;96204.97;;;6.16
65180;BMP280;51849;47.476;8.084;2022-11-20T07:28:05;96214.63;;;6.16
65180;BMP280;51849;47.476;8.084;2022-11-20T07:30:31;96216.06;;;6.17
65180;BMP280;51849;47.476;8.084;2022-11-20T07:32:57;96213.16;;;6.24
65180;BMP280;51849;47.476;8.084;2022-11-20T07:35:24;96209.66;;;6.27
65180;BMP280;51849;47.476;8.084;2022-11-20T07:37:49;96217.84;;;6.25
65180;BMP280;51849;47.476;8.084;2022-11-20T07:40:16;96218.38;;;6.38
65180;BMP280;51849;47.476;8.084;2022-11-20T07:42:54;96225.78;;;6.45
65180;BMP280;51849;47.476;8.084;2022-11-20T07:45:24;96227.38;;;6.43
65180;BMP280;51849;47.476;8.084;2022-11-20T07:47:52;96224.88;;;6.48
65180;BMP280;51849;47.476;8.084;2022-11-20T07:50:18;96226.13;;;6.53
65180;BMP280;51849;47.476;8.084;2022-11-20T07:52:44;96219.91;;;6.59
65180;BMP280;51849;47.476;8.084;2022-11-20T07:55:13;96223.31;;;6.65
65180;BMP280;51849;47.476;8.084;2022-11-20T07:57:38;96221.28;;;6.69
65180;BMP280;51849;47.476;8.084;2022-11-20T08:00:06;96231.72;;;6.75
65180;BMP280;51849;47.476;8.084;2022-11-20T08:02:37;96230.84;;;6.78
65180;BMP280;51849;47.476;8.084;2022-11-20T08:05:07;96234.41;;;6.81
65180;BMP280;51849;47.476;8.084;2022-11-20T08:07:40;96231.81;;;6.81
65180;BMP280;51849;47.476;8.084;2022-11-20T08:10:07;96239.09;;;6.77
65180;BMP280;51849;47.476;8.084;2022-11-20T08:12:35;96239.16;;;6.82
65180;BMP280;51849;47.476;8.084;2022-11-20T08:15:38;96229.22;;;6.81
65180;BMP280;51849;47.476;8.084;2022-11-20T08:18:11;96228.19;;;6.87
65180;BMP280;51849;47.476;8.084;2022-11-20T08:20:38;96231.41;;;6.97
65180;BMP280;51849;47.476;8.084;2022-11-20T08:23:05;96230.50;;;6.85
65180;BMP280;51849;47.476;8.084;2022-11-20T08:25:32;96233.28;;;6.82
65180;BMP280;51849;47.476;8.084;2022-11-20T08:27:59;96235.50;;;6.89
65180;BMP280;51849;47.476;8.084;2022-11-20T08:30:26;96233.81;;;6.86
65180;BMP280;51849;47.476;8.084;2022-11-20T08:32:52;96253.38;;;6.87
65180;BMP280;51849;47.476;8.084;2022-11-20T08:35:21;96246.06;;;6.85
65180;BMP280;51849;47.476;8.084;2022-11-20T08:37:47;96243.72;;;6.87
65180;BMP280;51849;47.476;8.084;2022-11-20T08:40:13;96248.38;;;6.98
65180;BMP280;51849;47.476;8.084;2022-11-20T08:42:49;96246.59;;;7.04
65180;BMP280;51849;47.476;8.084;2022-11-20T08:45:15;96257.25;;;7.06
65180;BMP280;51849;47.476;8.084;2022-11-20T08:47:42;96249.28;;;7.09
65180;BMP280;51849;47.476;8.084;2022-11-20T08:50:12;96258.06;;;7.12
65180;BMP280;51849;47.476;8.084;2022-11-20T08:52:43;96261.59;;;7.14
65180;BMP280;51849;47.476;8.084;2022-11-20T08:55:09;96267.25;;;7.13
65180;BMP280;51849;47.476;8.084;2022-11-20T08:57:36;96256.69;;;7.02
65180;BMP280;51849;47.476;8.084;2022-11-20T09:00:07;96258.94;;;7.09
65180;BMP280;51849;47.476;8.084;2022-11-20T09:02:32;96263.41;;;7.08
65180;BMP280;51849;47.476;8.084;2022-11-20T09:05:01;96259.38;;;7.07
65180;BMP280;51849;47.476;8.084;2022-11-20T09:07:28;96266.44;;;7.07
65180;BMP280;51849;47.476;8.084;2022-11-20T09:09:53;96263.41;;;7.08
65180;BMP280;51849;47.476;8.084;2022-11-20T09:12:24;96255.72;;;7.14
65180;BMP280;51849;47.476;8.084;2022-11-20T09:14:50;96258.56;;;7.16
65180;BMP280;51849;47.476;8.084;2022-11-20T09:17:15;96260.19;;;7.13
65180;BMP280;51849;47.476;8.084;2022-11-20T09:19:43;96256.97;;;7.18
65180;BMP280;51849;47.476;8.084;2022-11-20T09:22:11;96255.53;;;7.17
65180;BMP280;51849;47.476;8.084;2022-11-20T09:24:37;96259.09;;;7.20
65180;BMP280;51849;47.476;8.084;2022-11-20T09:27:05;96259.66;;;7.24
65180;BMP280;51849;47.476;8.084;2022-11-20T09:29:30;96260.81;;;7.23
65180;BMP280;51849;47.476;8.084;2022-11-20T09:31:59;96264.41;;;7.25
65180;BMP280;51849;47.476;8.084;2022-11-20T09:34:24;96267.88;;;7.22
65180;BMP280;51849;47.476;8.084;2022-11-20T09:36:50;96259.41;;;7.36
65180;BMP280;51849;47.476;8.084;2022-11-20T09:39:15;96260.72;;;7.32
65180;BMP280;51849;47.476;8.084;2022-11-20T09:51:53;96261.47;;;7.67
65180;BMP280;51849;47.476;8.084;2022-11-20T09:54:26;96266.84;;;7.63
65180;BMP280;51849;47.476;8.084;2022-11-20T09:57:21;96270.97;;;7.70
65180;BMP280;51849;47.476;8.084;2022-11-20T09:59:58;96270.56;;;7.77
65180;BMP280;51849;47.476;8.084;2022-11-20T10:02:37;96267.59;;;7.84
65180;BMP280;51849;47.476;8.084;2022-11-20T10:05:35;96270.28;;;7.90
65180;BMP280;51849;47.476;8.084;2022-11-20T10:08:30;96261.66;;;7.98
65180;BMP280;51849;47.476;8.084;2022-11-20T10:22:55;96252.69;;;8.39
65180;BMP280;51849;47.476;8.084;2022-11-20T10:25:39;96255.16;;;8.48
65180;BMP280;51849;47.476;8.084;2022-11-20T10:30:55;96261.00;;;8.63
65180;BMP280;51849;47.476;8.084;2022-11-20T10:33:26;96255.53;;;8.87
65180;BMP280;51849;47.476;8.084;2022-11-20T10:35:59;96259.47;;;9.03
65180;BMP280;51849;47.476;8.084;2022-11-20T10:38:36;96253.31;;;9.06
65180;BMP280;51849;47.476;8.084;2022-11-20T10:41:07;96250.09;;;8.85
65180;BMP280;51849;47.476;8.084;2022-11-20T10:43:53;96244.94;;;8.91
65180;BMP280;51849;47.476;8.084;2022-11-20T10:46:24;96248.47;;;8.88
65180;BMP280;51849;47.476;8.084;2022-11-20T10:48:53;96241.50;;;9.05
65180;BMP280;51849;47.476;8.084;2022-11-20T10:57:44;96234.28;;;8.89
65180;BMP280;51849;47.476;8.084;2022-11-20T11:00:13;96240.50;;;8.97
65180;BMP280;51849;47.476;8.084;2022-11-20T11:02:42;96235.31;;;8.97
65180;BMP280;51849;47.476;8.084;2022-11-20T11:05:15;96240.09;;;8.78
65180;BMP280;51849;47.476;8.084;2022-11-20T11:07:44;96224.91;;;8.97
65180;BMP280;51849;47.476;8.084;2022-11-20T11:10:15;96231.50;;;8.98
65180;BMP280;51849;47.476;8.084;2022-11-20T11:12:47;96221.00;;;8.87
65180;BMP280;51849;47.476;8.084;2022-11-20T11:18:02;96227.66;;;8.88
65180;BMP280;51849;47.476;8.084;2022-11-20T11:20:28;96217.25;;;8.88
65180;BMP280;51849;47.476;8.084;2022-11-20T11:23:02;96211.53;;;8.84
65180;BMP280;51849;47.476;8.084;2022-11-20T11:25:35;96203.78;;;8.89
65180;BMP280;51849;47.476;8.084;2022-11-20T11:28:03;96213.69;;;8.85
65180;BMP280;51849;47.476;8.084;2022-11-20T11:30:30;96205.31;;;8.75
65180;BMP280;51849;47.476;8.084;2022-11-20T11:33:09;96194.53;;;8.83
65180;BMP280;51849;47.476;8.084;2022-11-20T11:36:17;96208.69;;;8.82
65180;BMP280;51849;47.476;8.084;2022-11-20T11:38:51;96191.56;;;8.69
65180;BMP280;51849;47.476;8.084;2022-11-20T11:41:25;96193.66;;;8.65
65180;BMP280;51849;47.476;8.084;2022-11-20T11:43:57;96189.97;;;8.77
65180;BMP280;51849;47.476;8.084;2022-11-20T11:46:55;96193.44;;;8.69
65180;BMP280;51849;47.476;8.084;2022-11-20T11:49:24;96188.31;;;8.74
65180;BMP280;51849;47.476;8.084;2022-11-20T11:57:01;96173.69;;;8.51
65180;BMP280;51849;47.476;8.084;2022-11-20T12:00:09;96170.84;;;8.55
65180;BMP280;51849;47.476;8.084;2022-11-20T12:11:35;96153.25;;;8.39
65180;BMP280;51849;47.476;8.084;2022-11-20T12:14:40;96150.94;;;8.46
65180;BMP280;51849;47.476;8.084;2022-11-20T12:17:11;96144.75;;;8.38
65180;BMP280;51849;47.476;8.084;2022-11-20T12:19:39;96142.53;;;8.57
65180;BMP280;51849;47.476;8.084;2022-11-20T12:27:36;96130.22;;;8.52
65180;BMP280;51849;47.476;8.084;2022-11-20T12:30:15;96122.69;;;8.54
65180;BMP280;51849;47.476;8.084;2022-11-20T12:35:52;96119.41;;;8.59
65180;BMP280;51849;47.476;8.084;2022-11-20T12:55:16;96115.00;;;8.70
65180;BMP280;51849;47.476;8.084;2022-11-20T13:00:20;96125.47;;;8.82
65180;BMP280;51849;47.476;8.084;2022-11-20T13:03:23;96125.47;;;8.82
65180;BMP280;51849;47.476;8.084;2022-11-20T13:08:37;96118.25;;;8.97
65180;BMP280;51849;47.476;8.084;2022-11-20T13:16:48;96095.63;;;9.03
65180;BMP280;51849;47.476;8.084;2022-11-20T13:19:16;96094.84;;;8.97
65180;BMP280;51849;47.476;8.084;2022-11-20T13:21:45;96090.66;;;9.10
65180;BMP280;51849;47.476;8.084;2022-11-20T13:29:42;96081.34;;;9.40
65180;BMP280;51849;47.476;8.084;2022-11-20T13:32:15;96082.53;;;9.39
65180;BMP280;51849;47.476;8.084;2022-11-20T13:34:57;96081.75;;;9.28
65180;BMP280;51849;47.476;8.084;2022-11-20T13:39:52;96071.13;;;9.31
65180;BMP280;51849;47.476;8.084;2022-11-20T13:42:27;96058.88;;;9.37
65180;BMP280;51849;47.476;8.084;2022-11-20T13:44:54;96059.13;;;9.50
65180;BMP280;51849;47.476;8.084;2022-11-20T13:47:23;96053.88;;;9.34
65180;BMP280;51849;47.476;8.084;2022-11-20T13:49:51;96048.22;;;9.41
65180;BMP280;51849;47.476;8.084;2022-11-20T14:00:28;96048.44;;;9.32
65180;BMP280;51849;47.476;8.084;2022-11-20T14:05:35;96043.47;;;9.34
65180;BMP280;51849;47.476;8.084;2022-11-20T14:08:03;96046.97;;;9.20
65180;BMP280;51849;47.476;8.084;2022-11-20T14:10:31;96042.97;;;9.19
65180;BMP280;51849;47.476;8.084;2022-11-20T14:13:12;96044.31;;;9.09
65180;BMP280;51849;47.476;8.084;2022-11-20T14:15:43;96041.91;;;9.00
65180;BMP280;51849;47.476;8.084;2022-11-20T14:18:15;96039.78;;;8.98
65180;BMP280;51849;47.476;8.084;2022-11-20T14:20:41;96043.28;;;8.90
65180;BMP280;51849;47.476;8.084;2022-11-20T14:23:10;96043.47;;;8.86
65180;BMP280;51849;47.476;8.084;2022-11-20T14:25:36;96036.88;;;8.85
65180;BMP280;51849;47.476;8.084;2022-11-20T14:28:04;96032.38;;;8.86
65180;BMP280;51849;47.476;8.084;2022-11-20T14:30:42;96024.75;;;8.77
65180;BMP280;51849;47.476;8.084;2022-11-20T14:33:10;96028.59;;;8.87
65180;BMP280;51849;47.476;8.084;2022-11-20T14:35:44;96022.00;;;8.91
65180;BMP280;51849;47.476;8.084;2022-11-20T14:38:14;96030.53;;;8.97
65180;BMP280;51849;47.476;8.084;2022-11-20T14:40:43;96029.03;;;8.80
65180;BMP280;51849;47.476;8.084;2022-11-20T14:45:46;96018.19;;;8.44
65180;BMP280;51849;47.476;8.084;2022-11-20T14:48:14;96017.50;;;8.49
65180;BMP280;51849;47.476;8.084;2022-11-20T14:50:43;96015.41;;;8.53
65180;BMP280;51849;47.476;8.084;2022-11-20T14:53:25;96009.38;;;8.36
65180;BMP280;51849;47.476;8.084;2022-11-20T14:56:01;96013.94;;;8.47
65180;BMP280;51849;47.476;8.084;2022-11-20T14:58:29;96011.59;;;8.43
65180;BMP280;51849;47.476;8.084;2022-11-20T15:01:05;96010.34;;;8.39
65180;BMP280;51849;47.476;8.084;2022-11-20T15:03:37;96000.91;;;8.41
65180;BMP280;51849;47.476;8.084;2022-11-20T15:06:11;95999.25;;;8.38
65180;BMP280;51849;47.476;8.084;2022-11-20T15:08:52;95996.84;;;8.35
65180;BMP280;51849;47.476;8.084;2022-11-20T15:11:32;95986.94;;;8.33
65180;BMP280;51849;47.476;8.084;2022-11-20T15:14:02;95985.47;;;8.27
65180;BMP280;51849;47.476;8.084;2022-11-20T15:16:28;95978.59;;;8.24
65180;BMP280;51849;47.476;8.084;2022-11-20T15:18:56;95980.19;;;8.16
65180;BMP280;51849;47.476;8.084;2022-11-20T15:21:22;95971.91;;;8.17
65180;BMP280;51849;47.476;8.084;2022-11-20T15:23:51;95969.41;;;7.97
65180;BMP280;51849;47.476;8.084;2022-11-20T15:26:26;95963.13;;;7.78
65180;BMP280;51849;47.476;8.084;2022-11-20T15:28:53;95958.56;;;7.67
65180;BMP280;51849;47.476;8.084;2022-11-20T15:31:21;95964.66;;;7.64
65180;BMP280;51849;47.476;8.084;2022-11-20T15:33:47;95962.94;;;7.56
65180;BMP280;51849;47.476;8.084;2022-11-20T15:36:16;95965.25;;;7.54
65180;BMP280;51849;47.476;8.084;2022-11-20T15:38:41;95958.63;;;7.53
65180;BMP280;51849;47.476;8.084;2022-11-20T15:41:07;95962.50;;;7.63
65180;BMP280;51849;47.476;8.084;2022-11-20T15:43:33;95965.16;;;7.43
65180;BMP280;51849;47.476;8.084;2022-11-20T15:48:38;95954.53;;;7.21
65180;BMP280;51849;47.476;8.084;2022-11-20T15:53:39;95954.28;;;7.19
65180;BMP280;51849;47.476;8.084;2022-11-20T15:56:06;95950.66;;;7.11
65180;BMP280;51849;47.476;8.084;2022-11-20T15:58:35;95951.06;;;7.04
65180;BMP280;51849;47.476;8.084;2022-11-20T16:01:01;95942.16;;;6.90
65180;BMP280;51849;47.476;8.084;2022-11-20T16:03:29;95940.97;;;6.91
65180;BMP280;51849;47.476;8.084;2022-11-20T16:05:55;95935.63;;;6.95
65180;BMP280;51849;47.476;8.084;2022-11-20T16:08:23;95939.91;;;6.98
65180;BMP280;51849;47.476;8.084;2022-11-20T16:10:48;95933.22;;;6.91
65180;BMP280;51849;47.476;8.084;2022-11-20T16:13:19;95917.50;;;6.95
65180;BMP280;51849;47.476;8.084;2022-11-20T16:16:11;95924.47;;;6.89
65180;BMP280;51849;47.476;8.084;2022-11-20T16:18:42;95929.41;;;6.87
65180;BMP280;51849;47.476;8.084;2022-11-20T16:21:11;95933.88;;;6.86
65180;BMP280;51849;47.476;8.084;2022-11-20T16:23:37;95938.25;;;6.80
65180;BMP280;51849;47.476;8.084;2022-11-20T16:26:09;95935.66;;;6.80
65180;BMP280;51849;47.476;8.084;2022-11-20T16:28:37;95940.00;;;6.68
65180;BMP280;51849;47.476;8.084;2022-11-20T16:31:13;95931.34;;;6.71